Monte Cristi, Dominican Republic
Current Conditions -  °F | °C
As of 6:00 PM on Saturday 25 Oct 2014 (Local Time) from MDST Reporting Station
Scattered Clouds Scattered Clouds  
Wind Chill: 86°   Ceiling: Unl
Heat Index: 93°   Visibility: 6mi
Dew Point: 73°   Wind: 16mph
Humidity: 66%   Direction: 110°ESE
Pressure: 29.77"   Gusts: NA
Location:  19.85°N, 71.65°W
Report Text: MDST 252200Z 11014KT 9999 FEW024CB SCT026 SCT300 30/23 Q1008 CB/W
Loading
Personal Weather Stations






























Interactive Weather Map
Tropical Storm Tracking
New forecast layout! Learn more

10-Day Weather Forecast

Advertisements
Track Severe Weather on mobile